Time;durP1;ratioP1;P1;durP2;ratioP2;P2;SDS_P1;SDS_P2;PMS_P1;PMS_P2;Temp;Humidity;BMP_temperature;BMP_pressure;BME280_temperature;BME280_humidity;BME280_pressure;Samples;Min_cycle;Max_cycle;Signal;HPM_P1;HPM_P2
2024/01/16 00:02:02;;;;;;;6.97;3.40;;;;;;;;;;5099776;28;20975;-66
2024/01/16 00:04:31;;;;;;;8.87;2.90;;;;;;;;;;5102914;28;20480;-66
2024/01/16 00:06:57;;;;;;;4.30;3.20;;;;;;;;;;5093450;28;20970;-65
2024/01/16 00:09:23;;;;;;;3.60;2.87;;;;;;;;;;5103011;28;20466;-65
2024/01/16 00:11:50;;;;;;;3.80;3.40;;;;;;;;;;5087835;28;20931;-65
2024/01/16 00:14:16;;;;;;;4.90;3.20;;;;;;;;;;5097465;28;20527;-65
2024/01/16 00:16:44;;;;;;;9.13;2.77;;;;;;;;;;5088046;28;20516;-65
2024/01/16 00:19:10;;;;;;;2.47;2.30;;;;;;;;;;5086829;28;20497;-65
2024/01/16 00:21:41;;;;;;;4.20;2.77;;;;;;;;;;5090397;28;20474;-65
2024/01/16 00:24:08;;;;;;;2.70;2.50;;;;;;;;;;5092006;28;20455;-66
2024/01/16 00:26:34;;;;;;;4.60;2.83;;;;;;;;;;5096430;28;20447;-66
2024/01/16 00:29:00;;;;;;;4.47;3.00;;;;;;;;;;5095610;28;20471;-66
2024/01/16 00:31:27;;;;;;;3.20;2.90;;;;;;;;;;5098549;28;20487;-65
2024/01/16 00:33:53;;;;;;;6.73;2.93;;;;;;;;;;5095820;28;20517;-66
2024/01/16 00:36:20;;;;;;;8.77;2.97;;;;;;;;;;5093037;28;20487;-65
2024/01/16 00:38:47;;;;;;;4.50;3.00;;;;;;;;;;5094950;28;21054;-65
2024/01/16 00:41:14;;;;;;;2.80;2.60;;;;;;;;;;5094995;28;20471;-66
2024/01/16 00:43:41;;;;;;;3.33;3.03;;;;;;;;;;5094046;28;20446;-65
2024/01/16 00:46:07;;;;;;;6.13;2.57;;;;;;;;;;5092542;28;20446;-66
2024/01/16 00:48:34;;;;;;;6.37;4.10;;;;;;;;;;5094862;28;20455;-65
2024/01/16 00:51:00;;;;;;;4.70;2.70;;;;;;;;;;5089441;28;20447;-65
2024/01/16 00:53:27;;;;;;;4.07;3.40;;;;;;;;;;5101347;28;20459;-65
2024/01/16 00:55:55;;;;;;;4.27;2.90;;;;;;;;;;5096802;28;20484;-65
2024/01/16 00:58:22;;;;;;;4.90;2.77;;;;;;;;;;5100115;28;20443;-65
2024/01/16 01:00:48;;;;;;;4.00;3.63;;;;;;;;;;5103157;28;20559;-65
2024/01/16 01:03:15;;;;;;;3.93;3.60;;;;;;;;;;5100615;28;20475;-66
2024/01/16 01:05:41;;;;;;;5.00;3.47;;;;;;;;;;5101922;28;20525;-65
2024/01/16 01:08:08;;;;;;;5.10;3.73;;;;;;;;;;5096949;28;20503;-65
2024/01/16 01:10:35;;;;;;;9.33;3.30;;;;;;;;;;5097015;28;20876;-66
2024/01/16 01:13:03;;;;;;;8.90;3.33;;;;;;;;;;5099377;28;20479;-66
2024/01/16 01:15:29;;;;;;;12.40;3.73;;;;;;;;;;5101770;28;20447;-65
2024/01/16 01:17:55;;;;;;;4.20;3.77;;;;;;;;;;5099476;28;20458;-66
2024/01/16 01:20:22;;;;;;;5.40;3.30;;;;;;;;;;5096249;28;21052;-66
2024/01/16 01:22:48;;;;;;;3.60;3.40;;;;;;;;;;5098621;28;20447;-65
2024/01/16 01:25:15;;;;;;;4.73;3.73;;;;;;;;;;5094222;28;20912;-65
2024/01/16 01:27:42;;;;;;;5.93;3.33;;;;;;;;;;5097800;28;20556;-66
2024/01/16 01:30:10;;;;;;;4.83;3.63;;;;;;;;;;5100849;28;20503;-66
2024/01/16 01:32:37;;;;;;;9.13;3.80;;;;;;;;;;5099590;28;20511;-65
2024/01/16 01:35:03;;;;;;;12.17;3.80;;;;;;;;;;5097905;28;20477;-65
2024/01/16 01:37:30;;;;;;;9.53;3.60;;;;;;;;;;5105223;28;21735;-65
2024/01/16 01:39:58;;;;;;;14.30;4.87;;;;;;;;;;5096762;28;20582;-65
2024/01/16 01:42:24;;;;;;;4.80;3.70;;;;;;;;;;5106412;28;20633;-66
2024/01/16 01:44:51;;;;;;;7.27;3.97;;;;;;;;;;5096680;28;20489;-66
2024/01/16 01:47:19;;;;;;;4.37;3.70;;;;;;;;;;5090507;28;20489;-65
2024/01/16 01:49:45;;;;;;;4.10;3.57;;;;;;;;;;5101484;28;20459;-65
2024/01/16 01:52:12;;;;;;;8.17;4.00;;;;;;;;;;5095382;28;20475;-66
2024/01/16 01:54:39;;;;;;;7.10;3.73;;;;;;;;;;5101705;28;21009;-66
2024/01/16 01:57:05;;;;;;;5.90;3.70;;;;;;;;;;5091857;28;20514;-65
2024/01/16 01:59:32;;;;;;;9.33;4.57;;;;;;;;;;5095147;28;20598;-65
2024/01/16 02:01:59;;;;;;;6.70;3.40;;;;;;;;;;5087405;28;20564;-65
2024/01/16 02:04:27;;;;;;;11.20;4.73;;;;;;;;;;5099006;28;20498;-66
2024/01/16 02:06:54;;;;;;;13.10;4.83;;;;;;;;;;5096913;28;20451;-65
2024/01/16 02:09:20;;;;;;;11.43;4.70;;;;;;;;;;5099698;28;20577;-65
2024/01/16 02:11:47;;;;;;;7.17;6.43;;;;;;;;;;5095914;28;20850;-66
2024/01/16 02:14:14;;;;;;;5.70;4.67;;;;;;;;;;5087502;28;20511;-65
2024/01/16 02:16:41;;;;;;;5.80;4.03;;;;;;;;;;5100892;28;20803;-65
2024/01/16 02:19:08;;;;;;;10.27;6.20;;;;;;;;;;5097961;28;20482;-66
2024/01/16 02:21:38;;;;;;;5.60;4.90;;;;;;;;;;5098976;28;20890;-65
2024/01/16 02:24:06;;;;;;;5.47;4.33;;;;;;;;;;5106109;28;20530;-65
2024/01/16 02:26:32;;;;;;;6.07;4.53;;;;;;;;;;5089679;28;20459;-66
2024/01/16 02:29:01;;;;;;;5.17;4.67;;;;;;;;;;5087917;28;20895;-65
2024/01/16 02:31:27;;;;;;;11.03;4.97;;;;;;;;;;5094095;28;20468;-65
2024/01/16 02:33:54;;;;;;;8.43;4.80;;;;;;;;;;5095111;28;20824;-65
2024/01/16 02:36:20;;;;;;;11.73;5.23;;;;;;;;;;5096023;28;20481;-65
2024/01/16 02:38:47;;;;;;;8.63;5.33;;;;;;;;;;5098162;28;20594;-65
2024/01/16 02:41:17;;;;;;;9.07;4.80;;;;;;;;;;5094283;28;20480;-66
2024/01/16 02:43:43;;;;;;;7.60;5.13;;;;;;;;;;5090420;28;20898;-66
2024/01/16 02:46:10;;;;;;;9.23;4.87;;;;;;;;;;5101038;28;20471;-66
2024/01/16 02:48:36;;;;;;;9.90;5.37;;;;;;;;;;5091583;28;20451;-66
2024/01/16 02:51:03;;;;;;;11.03;5.50;;;;;;;;;;5094227;28;20460;-66
2024/01/16 02:53:30;;;;;;;9.23;5.43;;;;;;;;;;5095768;28;20432;-66
2024/01/16 02:55:58;;;;;;;10.00;4.80;;;;;;;;;;5093021;28;20993;-65
2024/01/16 02:58:26;;;;;;;11.50;5.07;;;;;;;;;;5100735;28;20459;-65
2024/01/16 03:00:52;;;;;;;10.00;5.23;;;;;;;;;;5103452;28;21116;-65
2024/01/16 03:03:19;;;;;;;10.83;5.70;;;;;;;;;;5093007;28;20505;-66
2024/01/16 03:05:45;;;;;;;15.53;4.73;;;;;;;;;;5091308;28;20490;-65
2024/01/16 03:08:12;;;;;;;8.97;5.30;;;;;;;;;;5097440;28;20446;-65
2024/01/16 03:10:38;;;;;;;6.13;5.20;;;;;;;;;;5094112;28;20531;-65
2024/01/16 03:13:05;;;;;;;9.80;5.20;;;;;;;;;;5094228;28;20558;-65
2024/01/16 03:15:32;;;;;;;10.70;5.77;;;;;;;;;;5097319;28;20443;-65
2024/01/16 03:17:59;;;;;;;6.70;4.63;;;;;;;;;;5091050;28;20480;-65
2024/01/16 03:20:26;;;;;;;5.13;4.73;;;;;;;;;;5095660;28;20483;-65
2024/01/16 03:22:52;;;;;;;10.80;5.10;;;;;;;;;;5096252;28;20451;-64
2024/01/16 03:25:20;;;;;;;6.17;4.90;;;;;;;;;;5098201;28;20463;-65
2024/01/16 03:27:47;;;;;;;9.43;5.47;;;;;;;;;;5090463;28;20451;-65
2024/01/16 03:30:13;;;;;;;12.00;5.70;;;;;;;;;;5096387;28;20547;-65
2024/01/16 03:32:42;;;;;;;9.23;5.37;;;;;;;;;;5095064;28;20506;-66
2024/01/16 03:35:08;;;;;;;6.10;5.47;;;;;;;;;;5098344;28;20491;-65
2024/01/16 03:37:35;;;;;;;8.47;4.93;;;;;;;;;;5096721;28;20463;-65
2024/01/16 03:40:02;;;;;;;6.70;5.53;;;;;;;;;;5093238;28;20499;-66
2024/01/16 03:42:29;;;;;;;5.90;4.90;;;;;;;;;;5104330;28;20453;-68
2024/01/16 03:44:55;;;;;;;7.77;5.10;;;;;;;;;;5092041;28;20518;-68
2024/01/16 03:47:21;;;;;;;5.90;5.30;;;;;;;;;;5090314;28;20511;-68
2024/01/16 03:49:50;;;;;;;17.33;6.10;;;;;;;;;;5093449;28;20460;-68
2024/01/16 03:52:16;;;;;;;11.30;5.60;;;;;;;;;;5093091;28;20458;-68
2024/01/16 03:54:42;;;;;;;6.63;5.63;;;;;;;;;;5097963;28;20902;-69
2024/01/16 03:57:09;;;;;;;8.43;5.00;;;;;;;;;;5090711;28;20507;-68
2024/01/16 03:59:37;;;;;;;10.57;6.20;;;;;;;;;;5088046;28;20504;-67
2024/01/16 04:02:04;;;;;;;8.33;5.93;;;;;;;;;;5091392;28;20521;-68
2024/01/16 04:04:30;;;;;;;6.70;5.40;;;;;;;;;;5097422;28;20447;-68
2024/01/16 04:06:58;;;;;;;7.93;5.80;;;;;;;;;;5099225;28;20487;-68
2024/01/16 04:09:24;;;;;;;9.00;5.80;;;;;;;;;;5088340;28;20515;-68
2024/01/16 04:11:51;;;;;;;8.33;6.00;;;;;;;;;;5098223;28;20530;-67
2024/01/16 04:14:17;;;;;;;9.03;5.63;;;;;;;;;;5100434;28;20542;-68
2024/01/16 04:16:44;;;;;;;7.90;4.93;;;;;;;;;;5101222;28;20450;-67
2024/01/16 04:19:11;;;;;;;9.00;5.93;;;;;;;;;;5100426;28;20482;-68
2024/01/16 04:21:37;;;;;;;14.40;7.97;;;;;;;;;;5098063;28;20510;-68
2024/01/16 04:24:05;;;;;;;11.33;6.87;;;;;;;;;;5102770;28;20465;-69
2024/01/16 04:26:32;;;;;;;11.63;6.60;;;;;;;;;;5098903;28;20465;-68
2024/01/16 04:28:58;;;;;;;9.20;7.30;;;;;;;;;;5097459;28;20443;-69
2024/01/16 04:31:24;;;;;;;7.70;6.87;;;;;;;;;;5095768;28;20538;-68
2024/01/16 04:33:51;;;;;;;12.13;7.40;;;;;;;;;;5093949;28;20530;-68
2024/01/16 04:36:17;;;;;;;13.10;7.87;;;;;;;;;;5095796;28;20675;-68
2024/01/16 04:38:44;;;;;;;10.70;8.47;;;;;;;;;;5098519;28;20475;-68
2024/01/16 04:41:11;;;;;;;14.20;7.50;;;;;;;;;;5095500;28;20522;-67
2024/01/16 04:43:38;;;;;;;8.43;7.37;;;;;;;;;;5095651;28;21070;-68
2024/01/16 04:46:05;;;;;;;10.80;6.93;;;;;;;;;;5102398;28;20476;-67
2024/01/16 04:48:31;;;;;;;7.33;6.70;;;;;;;;;;5105459;28;20508;-68
2024/01/16 04:50:57;;;;;;;7.57;6.77;;;;;;;;;;5096286;28;20455;-67
2024/01/16 04:53:24;;;;;;;10.63;6.17;;;;;;;;;;5095798;28;20444;-66
2024/01/16 04:55:51;;;;;;;10.67;8.10;;;;;;;;;;5091879;28;20459;-68
2024/01/16 04:58:19;;;;;;;10.27;6.97;;;;;;;;;;5090466;28;20447;-68
2024/01/16 05:00:45;;;;;;;13.40;7.33;;;;;;;;;;5090159;28;20581;-68
2024/01/16 05:03:12;;;;;;;9.27;7.23;;;;;;;;;;5092694;28;20450;-68
2024/01/16 05:05:39;;;;;;;10.10;6.80;;;;;;;;;;5099626;28;20504;-67
2024/01/16 05:08:05;;;;;;;7.33;6.07;;;;;;;;;;5096550;28;20450;-68
2024/01/16 05:10:32;;;;;;;14.33;7.63;;;;;;;;;;5100246;28;20490;-67
2024/01/16 05:12:58;;;;;;;9.07;6.80;;;;;;;;;;5098749;28;20896;-67
2024/01/16 05:15:26;;;;;;;9.50;6.67;;;;;;;;;;5090617;28;20921;-68
2024/01/16 05:17:53;;;;;;;9.10;7.47;;;;;;;;;;5092807;28;20523;-67
2024/01/16 05:20:19;;;;;;;11.10;6.33;;;;;;;;;;5097813;28;20489;-66
2024/01/16 05:22:46;;;;;;;12.43;6.50;;;;;;;;;;5089461;28;21006;-68
2024/01/16 05:25:12;;;;;;;17.10;6.90;;;;;;;;;;5094318;28;20509;-69
2024/01/16 05:27:38;;;;;;;11.10;5.73;;;;;;;;;;5087177;28;20470;-67
2024/01/16 05:30:06;;;;;;;13.10;6.60;;;;;;;;;;5094826;28;20443;-69
2024/01/16 05:32:34;;;;;;;10.70;6.70;;;;;;;;;;5092851;28;20477;-69
2024/01/16 05:35:00;;;;;;;7.00;5.20;;;;;;;;;;5101643;28;20486;-68
2024/01/16 05:37:29;;;;;;;11.63;6.27;;;;;;;;;;5096740;28;20479;-66
2024/01/16 05:39:55;;;;;;;8.23;6.20;;;;;;;;;;5093618;28;20483;-67
2024/01/16 05:42:22;;;;;;;8.77;6.03;;;;;;;;;;5087110;28;20546;-68
2024/01/16 05:44:48;;;;;;;10.43;7.57;;;;;;;;;;5086493;28;20535;-68
2024/01/16 05:47:15;;;;;;;8.10;6.80;;;;;;;;;;5102549;28;20458;-68
2024/01/16 05:49:42;;;;;;;13.13;7.33;;;;;;;;;;5097664;28;20494;-69
2024/01/16 05:52:10;;;;;;;7.50;5.60;;;;;;;;;;5096667;28;20527;-68
2024/01/16 05:54:36;;;;;;;8.93;5.43;;;;;;;;;;5094974;28;20460;-68
2024/01/16 05:57:03;;;;;;;10.67;6.97;;;;;;;;;;5088474;28;20563;-68
2024/01/16 05:59:29;;;;;;;14.33;6.30;;;;;;;;;;5090491;28;20456;-68
2024/01/16 06:01:56;;;;;;;10.00;5.40;;;;;;;;;;5092449;28;20549;-68
2024/01/16 06:04:22;;;;;;;8.20;5.90;;;;;;;;;;5092618;28;20530;-68
2024/01/16 06:06:50;;;;;;;8.43;6.20;;;;;;;;;;5091753;28;20454;-72
2024/01/16 06:09:16;;;;;;;9.00;5.60;;;;;;;;;;5090578;28;20451;-70
2024/01/16 06:11:43;;;;;;;6.90;6.20;;;;;;;;;;5093192;28;20444;-78
2024/01/16 06:14:09;;;;;;;10.97;5.70;;;;;;;;;;5092822;28;20546;-75
2024/01/16 06:16:36;;;;;;;13.10;6.13;;;;;;;;;;5094045;28;20451;-70
2024/01/16 06:19:02;;;;;;;10.57;5.70;;;;;;;;;;5109815;28;20478;-71
2024/01/16 06:21:29;;;;;;;12.63;6.90;;;;;;;;;;5086953;28;20539;-71
2024/01/16 06:23:57;;;;;;;9.23;5.77;;;;;;;;;;5091315;28;20534;-70
2024/01/16 06:26:23;;;;;;;8.63;5.73;;;;;;;;;;5091705;28;20877;-70
2024/01/16 06:28:49;;;;;;;8.47;5.77;;;;;;;;;;5094308;28;20516;-70
2024/01/16 06:31:17;;;;;;;9.53;6.80;;;;;;;;;;5089895;28;20543;-71
2024/01/16 06:33:44;;;;;;;7.30;6.03;;;;;;;;;;5092958;28;20446;-70
2024/01/16 06:36:10;;;;;;;10.60;6.80;;;;;;;;;;5091871;28;20867;-71
2024/01/16 06:38:38;;;;;;;13.13;6.90;;;;;;;;;;5090733;28;20472;-71
2024/01/16 06:41:06;;;;;;;7.73;6.50;;;;;;;;;;5089323;28;20514;-70
2024/01/16 06:43:33;;;;;;;9.20;6.37;;;;;;;;;;5096633;28;20525;-71
2024/01/16 06:45:59;;;;;;;9.67;6.90;;;;;;;;;;5092158;28;20546;-77
2024/01/16 06:48:26;;;;;;;7.17;5.93;;;;;;;;;;5082675;28;20457;-71
2024/01/16 06:50:52;;;;;;;8.00;5.97;;;;;;;;;;5088785;28;20487;-70
2024/01/16 06:53:18;;;;;;;11.63;6.90;;;;;;;;;;5091894;28;21221;-70
2024/01/16 06:55:45;;;;;;;7.87;5.17;;;;;;;;;;5091442;28;20519;-69
2024/01/16 06:58:13;;;;;;;10.17;6.27;;;;;;;;;;5098086;28;20434;-72
2024/01/16 07:00:41;;;;;;;12.30;6.97;;;;;;;;;;5090686;28;20483;-70
2024/01/16 07:03:08;;;;;;;6.70;6.00;;;;;;;;;;5098108;28;20897;-70
2024/01/16 07:05:34;;;;;;;10.07;6.17;;;;;;;;;;5096189;28;20802;-70
2024/01/16 07:08:00;;;;;;;11.50;6.70;;;;;;;;;;5094836;28;20550;-70
2024/01/16 07:10:27;;;;;;;11.30;6.70;;;;;;;;;;5096498;28;20566;-69
2024/01/16 07:12:53;;;;;;;11.00;7.17;;;;;;;;;;5100183;28;20509;-69
2024/01/16 07:15:21;;;;;;;11.83;6.73;;;;;;;;;;5108226;28;21139;-70
2024/01/16 07:17:47;;;;;;;12.10;6.63;;;;;;;;;;5095264;28;20482;-70
2024/01/16 07:20:14;;;;;;;8.77;6.17;;;;;;;;;;5102179;28;20565;-70
2024/01/16 07:22:41;;;;;;;12.83;6.70;;;;;;;;;;5100487;28;20542;-70
2024/01/16 07:25:07;;;;;;;12.63;6.50;;;;;;;;;;5086409;28;20836;-68
2024/01/16 07:27:34;;;;;;;9.50;6.87;;;;;;;;;;5096337;28;20459;-70
2024/01/16 07:30:00;;;;;;;12.27;7.10;;;;;;;;;;5096864;28;20463;-69
2024/01/16 07:32:28;;;;;;;9.13;7.10;;;;;;;;;;5090195;28;20444;-70
2024/01/16 07:34:54;;;;;;;8.60;6.97;;;;;;;;;;5100059;28;20490;-68
2024/01/16 07:37:21;;;;;;;11.30;7.40;;;;;;;;;;5096929;28;20471;-70
2024/01/16 07:39:47;;;;;;;10.63;7.00;;;;;;;;;;5096485;28;20504;-69
2024/01/16 07:42:14;;;;;;;9.07;7.63;;;;;;;;;;5104074;28;20975;-71
2024/01/16 07:44:40;;;;;;;9.23;7.70;;;;;;;;;;5099124;28;20508;-71
2024/01/16 07:47:07;;;;;;;10.80;6.77;;;;;;;;;;5100801;28;20866;-70
2024/01/16 07:49:35;;;;;;;10.50;7.03;;;;;;;;;;5101082;28;20467;-68
2024/01/16 07:52:02;;;;;;;12.77;7.03;;;;;;;;;;5093629;28;20451;-70
2024/01/16 07:54:28;;;;;;;11.17;7.00;;;;;;;;;;5098434;28;21271;-70
2024/01/16 07:56:54;;;;;;;13.33;7.57;;;;;;;;;;5102803;28;20479;-69
2024/01/16 07:59:21;;;;;;;10.33;7.43;;;;;;;;;;5091723;28;20508;-69
2024/01/16 08:01:47;;;;;;;15.07;8.50;;;;;;;;;;5093325;28;20575;-69
2024/01/16 08:04:14;;;;;;;12.73;7.57;;;;;;;;;;5101973;28;20999;-70
2024/01/16 08:06:41;;;;;;;9.60;7.33;;;;;;;;;;5089728;28;20498;-70
2024/01/16 08:09:08;;;;;;;10.67;8.03;;;;;;;;;;5089616;28;20922;-70
2024/01/16 08:11:36;;;;;;;11.43;8.40;;;;;;;;;;5099576;28;20947;-70
2024/01/16 08:14:03;;;;;;;7.53;6.70;;;;;;;;;;5100500;28;20531;-70
2024/01/16 08:16:29;;;;;;;11.07;7.00;;;;;;;;;;5090589;28;20932;-70
2024/01/16 08:18:55;;;;;;;11.87;7.57;;;;;;;;;;5098243;28;20459;-71
2024/01/16 08:21:22;;;;;;;11.13;8.10;;;;;;;;;;5098355;28;20517;-69
2024/01/16 08:23:50;;;;;;;11.77;8.13;;;;;;;;;;5094990;28;20516;-70
2024/01/16 08:26:16;;;;;;;8.87;7.57;;;;;;;;;;5101089;28;21155;-69
2024/01/16 08:28:43;;;;;;;8.03;7.20;;;;;;;;;;5100441;28;20509;-69
2024/01/16 08:31:09;;;;;;;11.80;7.40;;;;;;;;;;5092584;28;20490;-69
2024/01/16 08:33:35;;;;;;;10.87;7.03;;;;;;;;;;5093703;28;20431;-70
2024/01/16 08:36:02;;;;;;;14.07;7.77;;;;;;;;;;5099359;28;20505;-70
2024/01/16 08:38:28;;;;;;;12.00;8.00;;;;;;;;;;5095064;28;20489;-70
2024/01/16 08:40:56;;;;;;;10.43;7.13;;;;;;;;;;5094584;28;20928;-70
2024/01/16 08:43:23;;;;;;;11.77;8.27;;;;;;;;;;5097344;28;20510;-69
2024/01/16 08:45:49;;;;;;;12.10;7.47;;;;;;;;;;5096905;28;20485;-70
2024/01/16 08:48:16;;;;;;;9.40;7.10;;;;;;;;;;5087338;28;20451;-69
2024/01/16 08:50:43;;;;;;;10.20;7.20;;;;;;;;;;5095741;28;20578;-70
2024/01/16 08:53:09;;;;;;;9.97;7.10;;;;;;;;;;5095373;28;20500;-70
2024/01/16 08:55:35;;;;;;;9.50;6.73;;;;;;;;;;5092537;28;20908;-70
2024/01/16 08:58:03;;;;;;;7.10;6.40;;;;;;;;;;5092118;28;20504;-69
2024/01/16 09:00:30;;;;;;;13.40;6.00;;;;;;;;;;5091421;28;20446;-70
2024/01/16 09:02:57;;;;;;;8.97;6.50;;;;;;;;;;5094862;28;20471;-70
2024/01/16 09:05:25;;;;;;;10.73;7.10;;;;;;;;;;5096149;28;20547;-69
2024/01/16 09:07:52;;;;;;;9.17;6.40;;;;;;;;;;5105067;28;20483;-69
2024/01/16 09:10:18;;;;;;;8.50;6.80;;;;;;;;;;5095999;28;20459;-70
2024/01/16 09:12:45;;;;;;;8.10;6.40;;;;;;;;;;5085080;28;21524;-70
2024/01/16 09:15:13;;;;;;;9.13;6.87;;;;;;;;;;5085312;28;21008;-69
2024/01/16 09:17:40;;;;;;;7.20;6.50;;;;;;;;;;5108432;28;20515;-71
2024/01/16 09:20:07;;;;;;;6.87;5.83;;;;;;;;;;5104743;28;20453;-70
2024/01/16 09:22:34;;;;;;;7.63;6.57;;;;;;;;;;5098974;28;20486;-70
2024/01/16 09:25:01;;;;;;;7.90;5.90;;;;;;;;;;5105882;28;20455;-68
2024/01/16 09:27:27;;;;;;;12.57;6.33;;;;;;;;;;5088944;28;21090;-69
2024/01/16 09:29:54;;;;;;;6.47;5.47;;;;;;;;;;5101638;28;20517;-69
2024/01/16 09:32:21;;;;;;;7.90;6.17;;;;;;;;;;5100966;28;20471;-69
2024/01/16 09:34:48;;;;;;;7.23;6.37;;;;;;;;;;5107919;28;20442;-70
2024/01/16 09:37:14;;;;;;;6.50;5.97;;;;;;;;;;5102441;28;20459;-68
2024/01/16 09:39:41;;;;;;;7.87;6.83;;;;;;;;;;5095524;28;20987;-70
2024/01/16 09:42:07;;;;;;;7.37;6.57;;;;;;;;;;5102167;28;20553;-70
2024/01/16 09:44:35;;;;;;;7.67;6.47;;;;;;;;;;5099937;28;20459;-68
2024/01/16 09:47:03;;;;;;;11.43;6.80;;;;;;;;;;5099227;28;20447;-69
2024/01/16 09:49:31;;;;;;;7.10;6.40;;;;;;;;;;5109297;28;21024;-69
2024/01/16 09:51:59;;;;;;;7.30;6.10;;;;;;;;;;5100944;28;20483;-70
2024/01/16 09:54:26;;;;;;;11.67;7.00;;;;;;;;;;5106853;28;20461;-68
2024/01/16 09:56:54;;;;;;;7.10;6.40;;;;;;;;;;5096603;28;20463;-69
2024/01/16 09:59:21;;;;;;;8.60;7.10;;;;;;;;;;5103510;28;20546;-69
2024/01/16 10:01:49;;;;;;;10.50;7.63;;;;;;;;;;5095937;28;21003;-70
2024/01/16 10:04:16;;;;;;;7.90;7.10;;;;;;;;;;5097431;28;20490;-69
2024/01/16 10:06:46;;;;;;;9.67;8.20;;;;;;;;;;5104907;28;20470;-69
2024/01/16 10:09:13;;;;;;;8.90;8.00;;;;;;;;;;5099689;28;20458;-69
2024/01/16 10:11:40;;;;;;;12.20;9.00;;;;;;;;;;5092641;28;20455;-69
2024/01/16 10:14:06;;;;;;;12.70;8.57;;;;;;;;;;5085520;28;20491;-70
2024/01/16 10:16:51;;;;;;;13.27;10.17;;;;;;;;;;5094665;28;20535;-69
2024/01/16 10:19:17;;;;;;;13.63;10.00;;;;;;;;;;5102460;28;20847;-69
2024/01/16 10:21:45;;;;;;;10.93;8.80;;;;;;;;;;5098901;28;20527;-69
2024/01/16 10:24:12;;;;;;;16.10;9.90;;;;;;;;;;5097856;28;20483;-70
2024/01/16 10:26:39;;;;;;;13.10;10.30;;;;;;;;;;5108488;28;20462;-67
2024/01/16 10:29:05;;;;;;;14.27;10.63;;;;;;;;;;5083910;28;20718;-69
2024/01/16 10:31:32;;;;;;;28.17;11.80;;;;;;;;;;5093644;28;20493;-68
2024/01/16 10:33:58;;;;;;;22.13;11.67;;;;;;;;;;5098036;28;20484;-69
2024/01/16 10:36:25;;;;;;;16.07;11.93;;;;;;;;;;5098555;28;20895;-70
2024/01/16 10:39:03;;;;;;;22.70;13.40;;;;;;;;;;5098707;28;20516;-70
2024/01/16 10:41:29;;;;;;;22.37;13.37;;;;;;;;;;5090550;28;20481;-70
2024/01/16 10:44:04;;;;;;;15.30;12.50;;;;;;;;;;5099609;28;20534;-70
2024/01/16 10:46:30;;;;;;;20.67;13.07;;;;;;;;;;5098071;28;20464;-70
2024/01/16 10:49:00;;;;;;;18.53;12.87;;;;;;;;;;5104561;28;20543;-70
2024/01/16 10:51:28;;;;;;;16.77;13.70;;;;;;;;;;5096367;28;20526;-70
2024/01/16 10:53:58;;;;;;;20.47;14.80;;;;;;;;;;5104426;28;20495;-68
2024/01/16 10:56:28;;;;;;;26.10;15.20;;;;;;;;;;5091777;28;20584;-70
2024/01/16 10:58:58;;;;;;;21.93;15.30;;;;;;;;;;5094865;28;20515;-69
2024/01/16 11:01:25;;;;;;;18.13;15.03;;;;;;;;;;5100218;28;20473;-70
2024/01/16 11:03:52;;;;;;;19.97;16.00;;;;;;;;;;5096653;28;20518;-70
2024/01/16 11:06:19;;;;;;;22.87;16.63;;;;;;;;;;5093319;28;20463;-69
2024/01/16 11:08:46;;;;;;;27.10;16.30;;;;;;;;;;5089645;28;20511;-70
2024/01/16 11:11:14;;;;;;;23.87;17.93;;;;;;;;;;5089442;28;20496;-70
2024/01/16 11:13:44;;;;;;;22.93;15.20;;;;;;;;;;5097740;28;20542;-70
2024/01/16 11:16:11;;;;;;;23.60;16.10;;;;;;;;;;5097533;28;20456;-69
2024/01/16 11:18:37;;;;;;;19.57;17.30;;;;;;;;;;5094789;28;21140;-70
2024/01/16 11:21:05;;;;;;;24.97;17.60;;;;;;;;;;5096633;28;20491;-69
2024/01/16 11:23:32;;;;;;;21.07;17.60;;;;;;;;;;5097414;28;20543;-70
2024/01/16 11:25:59;;;;;;;22.00;16.83;;;;;;;;;;5112002;28;20477;-70
2024/01/16 11:28:30;;;;;;;28.77;18.70;;;;;;;;;;5108661;28;20481;-70
2024/01/16 11:30:57;;;;;;;25.50;18.67;;;;;;;;;;5086107;28;20554;-70
2024/01/16 11:33:42;;;;;;;22.97;15.93;;;;;;;;;;5095181;28;20451;-71
2024/01/16 11:36:37;;;;;;;19.07;14.43;;;;;;;;;;5094009;28;20463;-69
2024/01/16 11:39:05;;;;;;;19.20;14.40;;;;;;;;;;5093847;28;20492;-70
2024/01/16 11:41:51;;;;;;;17.13;13.00;;;;;;;;;;5092306;28;20547;-70
2024/01/16 11:44:32;;;;;;;20.83;13.07;;;;;;;;;;5093416;28;20490;-71
2024/01/16 11:47:03;;;;;;;17.87;12.20;;;;;;;;;;5094228;28;20496;-69
2024/01/16 11:49:31;;;;;;;21.20;11.57;;;;;;;;;;5103587;28;20527;-68
2024/01/16 11:51:58;;;;;;;15.83;12.00;;;;;;;;;;5092492;28;20512;-70
2024/01/16 11:54:24;;;;;;;15.03;10.50;;;;;;;;;;5092792;28;21093;-70
2024/01/16 11:57:21;;;;;;;17.50;10.87;;;;;;;;;;5098198;28;20492;-70
2024/01/16 12:00:12;;;;;;;13.60;11.07;;;;;;;;;;5085829;28;20484;-68
2024/01/16 12:03:03;;;;;;;15.60;10.57;;;;;;;;;;5094066;28;20482;-70
2024/01/16 12:05:31;;;;;;;11.87;9.50;;;;;;;;;;5077947;28;20929;-70
2024/01/16 12:07:58;;;;;;;10.07;9.07;;;;;;;;;;5087177;28;20488;-69
2024/01/16 12:10:25;;;;;;;10.23;8.90;;;;;;;;;;5092786;28;20493;-68
2024/01/16 12:12:52;;;;;;;11.40;9.07;;;;;;;;;;5096003;28;20511;-70
2024/01/16 12:15:19;;;;;;;11.13;9.20;;;;;;;;;;5096716;28;20678;-70
2024/01/16 12:17:53;;;;;;;15.93;8.20;;;;;;;;;;5096634;28;20442;-71
2024/01/16 12:20:20;;;;;;;9.23;7.60;;;;;;;;;;5087034;28;21219;-68
2024/01/16 12:22:53;;;;;;;8.27;7.03;;;;;;;;;;5089763;28;20535;-70
2024/01/16 12:25:20;;;;;;;10.80;7.80;;;;;;;;;;5096966;28;20533;-70
2024/01/16 12:27:46;;;;;;;12.40;8.03;;;;;;;;;;5095908;28;20502;-71
2024/01/16 12:30:13;;;;;;;11.43;7.20;;;;;;;;;;5091530;28;20535;-70
2024/01/16 12:32:40;;;;;;;11.00;7.03;;;;;;;;;;5097388;28;20478;-71
2024/01/16 12:35:06;;;;;;;6.87;6.20;;;;;;;;;;5103870;28;20466;-71
2024/01/16 12:37:33;;;;;;;10.00;7.43;;;;;;;;;;5086168;28;20478;-70
2024/01/16 12:40:01;;;;;;;9.67;6.63;;;;;;;;;;5104719;28;20520;-70
2024/01/16 12:42:27;;;;;;;11.30;6.20;;;;;;;;;;5094888;28;20447;-70
2024/01/16 12:44:55;;;;;;;5.80;5.30;;;;;;;;;;5093064;28;20451;-71
2024/01/16 12:47:22;;;;;;;9.47;7.63;;;;;;;;;;5097826;28;20454;-71
2024/01/16 12:49:48;;;;;;;9.13;7.03;;;;;;;;;;5093161;28;20460;-71
2024/01/16 12:52:19;;;;;;;7.67;5.80;;;;;;;;;;5094350;28;20981;-71
2024/01/16 12:54:45;;;;;;;11.43;6.33;;;;;;;;;;5101331;28;20519;-70
2024/01/16 12:57:19;;;;;;;8.03;6.73;;;;;;;;;;5097659;28;20463;-70
2024/01/16 12:59:46;;;;;;;9.03;6.10;;;;;;;;;;5096468;28;20708;-71
2024/01/16 13:02:20;;;;;;;6.97;5.47;;;;;;;;;;5107639;28;20486;-71
2024/01/16 13:04:46;;;;;;;8.63;6.03;;;;;;;;;;5099476;28;21067;-70
2024/01/16 13:07:16;;;;;;;9.67;6.23;;;;;;;;;;5100312;28;20988;-71
2024/01/16 13:09:43;;;;;;;7.07;5.47;;;;;;;;;;5093960;28;20562;-69
2024/01/16 13:12:09;;;;;;;6.03;5.53;;;;;;;;;;5099435;28;20481;-70
2024/01/16 13:14:37;;;;;;;9.67;5.90;;;;;;;;;;5097153;28;20476;-69
2024/01/16 13:17:06;;;;;;;8.90;5.67;;;;;;;;;;5102023;28;20476;-68
2024/01/16 13:19:33;;;;;;;6.93;5.53;;;;;;;;;;5109731;28;20450;-69
2024/01/16 13:21:59;;;;;;;10.70;5.37;;;;;;;;;;5101897;28;20447;-69
2024/01/16 13:24:26;;;;;;;9.80;5.20;;;;;;;;;;5102032;28;20474;-69
2024/01/16 13:26:52;;;;;;;10.03;5.60;;;;;;;;;;5105539;28;20607;-70
2024/01/16 13:29:19;;;;;;;8.90;6.47;;;;;;;;;;5098479;28;20453;-68
2024/01/16 13:31:47;;;;;;;9.70;6.87;;;;;;;;;;5097727;28;20905;-69
2024/01/16 13:34:14;;;;;;;6.63;5.83;;;;;;;;;;5100982;28;20454;-69
2024/01/16 13:36:42;;;;;;;10.90;7.20;;;;;;;;;;5089624;28;20502;-69
2024/01/16 13:39:12;;;;;;;8.50;6.60;;;;;;;;;;5107321;28;20521;-69
2024/01/16 13:41:38;;;;;;;7.33;6.63;;;;;;;;;;5099366;28;20463;-69
2024/01/16 13:44:06;;;;;;;8.33;7.17;;;;;;;;;;5108521;28;20629;-69
2024/01/16 13:46:32;;;;;;;6.67;5.57;;;;;;;;;;5098016;28;20903;-69
2024/01/16 13:49:00;;;;;;;9.70;6.40;;;;;;;;;;5088651;28;20516;-67
2024/01/16 13:51:27;;;;;;;8.23;6.27;;;;;;;;;;5092345;28;20509;-67
2024/01/16 13:53:53;;;;;;;11.00;6.70;;;;;;;;;;5093396;28;20434;-67
2024/01/16 13:56:20;;;;;;;8.83;6.30;;;;;;;;;;5089974;28;20463;-67
2024/01/16 13:58:47;;;;;;;7.33;6.83;;;;;;;;;;5087690;28;20516;-69
2024/01/16 14:01:13;;;;;;;8.33;6.20;;;;;;;;;;5096075;28;20990;-66
2024/01/16 14:03:40;;;;;;;8.77;7.30;;;;;;;;;;5092871;28;20527;-66
2024/01/16 14:06:08;;;;;;;9.80;6.50;;;;;;;;;;5107682;28;20448;-66
2024/01/16 14:08:34;;;;;;;7.00;6.40;;;;;;;;;;5095548;28;20434;-66
2024/01/16 14:11:01;;;;;;;7.80;6.30;;;;;;;;;;5096492;28;20452;-66
2024/01/16 14:13:27;;;;;;;7.80;6.30;;;;;;;;;;5110099;28;20481;-66
2024/01/16 14:15:54;;;;;;;10.83;6.60;;;;;;;;;;5096845;28;20454;-66
2024/01/16 14:18:20;;;;;;;8.00;6.87;;;;;;;;;;5091637;28;20554;-66
2024/01/16 14:20:47;;;;;;;11.27;6.40;;;;;;;;;;5100698;28;20446;-66
2024/01/16 14:23:15;;;;;;;7.07;6.47;;;;;;;;;;5104518;28;20532;-66
2024/01/16 14:25:41;;;;;;;6.83;6.07;;;;;;;;;;5103352;28;20516;-66
2024/01/16 14:28:08;;;;;;;10.93;6.57;;;;;;;;;;5096402;28;20483;-66
2024/01/16 14:30:35;;;;;;;8.23;6.37;;;;;;;;;;5089294;28;20455;-67
2024/01/16 14:33:02;;;;;;;8.83;5.90;;;;;;;;;;5092802;28;20588;-67
2024/01/16 14:35:28;;;;;;;10.00;5.93;;;;;;;;;;5099311;28;20986;-67
2024/01/16 14:37:55;;;;;;;6.73;6.03;;;;;;;;;;5089890;28;20898;-68